Time;durP1;ratioP1;P1;durP2;ratioP2;P2;SDS_P1;SDS_P2;PMS_P1;PMS_P2;Temp;Humidity;BMP_temperature;BMP_pressure;BME280_temperature;BME280_humidity;BME280_pressure;Samples;Min_cycle;Max_cycle;Signal;HPM_P1;HPM_P2
2021/07/14 00:01:27;;;;;;;41.28;27.05;;;;;;;19.66;76.96;99727.59;10351874;28;20234;-74
2021/07/14 00:06:29;;;;;;;43.15;25.67;;;;;;;19.59;76.69;99733.03;10348016;28;20226;-74
2021/07/14 00:11:38;;;;;;;45.13;29.27;;;;;;;19.56;77.01;99730.69;10349964;28;20246;-73
2021/07/14 00:22:10;;;;;;;43.92;27.85;;;;;;;19.16;78.65;99727.63;10347460;28;20249;-74
2021/07/14 00:27:14;;;;;;;47.38;27.92;;;;;;;19.17;78.71;99737.50;10344546;28;20263;-74
2021/07/14 00:32:17;;;;;;;44.13;28.75;;;;;;;18.87;80.04;99752.25;10344935;28;20234;-73
2021/07/14 00:37:21;;;;;;;46.38;28.30;;;;;;;18.91;80.01;99743.53;10345636;28;20654;-73
2021/07/14 00:42:26;;;;;;;48.03;27.42;;;;;;;18.97;79.77;99740.00;10361140;28;20241;-74
2021/07/14 00:47:32;;;;;;;48.53;29.05;;;;;;;19.07;79.70;99736.97;10345548;28;20924;-74
2021/07/14 00:52:36;;;;;;;46.00;27.92;;;;;;;19.23;79.16;99722.25;10345461;28;20261;-74
2021/07/14 00:57:40;;;;;;;47.45;28.55;;;;;;;19.28;78.79;99727.09;10345582;28;20345;-73
2021/07/14 01:02:43;;;;;;;47.42;29.77;;;;;;;19.26;78.65;99716.41;10353907;28;20281;-74
2021/07/14 01:07:53;;;;;;;45.30;27.52;;;;;;;18.97;79.35;99718.25;10351579;28;20389;-73
2021/07/14 01:13:03;;;;;;;47.08;26.98;;;;;;;19.13;79.34;99719.84;10334233;28;20235;-73
2021/07/14 01:18:14;;;;;;;44.45;27.15;;;;;;;19.15;79.03;99716.94;10350426;28;20246;-74
2021/07/14 01:23:24;;;;;;;46.40;28.67;;;;;;;19.22;78.83;99712.38;10350824;28;20230;-74
2021/07/14 01:28:30;;;;;;;46.08;29.00;;;;;;;19.34;78.66;99710.81;10352315;28;20246;-74
2021/07/14 01:33:37;;;;;;;44.28;27.75;;;;;;;19.33;78.33;99714.56;10352707;28;20246;-74
2021/07/14 01:38:42;;;;;;;45.92;27.05;;;;;;;19.35;78.32;99708.94;10351653;28;20246;-74
2021/07/14 01:43:49;;;;;;;46.95;28.67;;;;;;;19.41;78.46;99719.03;10351067;28;20230;-74
2021/07/14 01:48:56;;;;;;;46.03;28.75;;;;;;;19.44;78.36;99715.91;10350896;28;20243;-74
2021/07/14 01:54:04;;;;;;;43.47;27.55;;;;;;;19.39;78.68;99721.97;10348839;28;20715;-73
2021/07/14 01:59:09;;;;;;;50.00;28.80;;;;;;;19.18;79.53;99717.38;10334561;28;20234;-74
2021/07/14 02:09:36;;;;;;;44.08;28.05;;;;;;;18.70;82.66;99708.09;10348174;28;20242;-74
2021/07/14 02:14:47;;;;;;;50.55;29.60;;;;;;;18.65;83.72;99710.56;10348609;28;20238;-74
2021/07/14 02:19:54;;;;;;;52.15;30.05;;;;;;;18.64;83.79;99701.56;10348763;28;20249;-74
2021/07/14 02:24:57;;;;;;;56.03;31.90;;;;;;;18.60;83.53;99711.16;10350838;28;20237;-74
2021/07/14 02:30:02;;;;;;;57.88;33.72;;;;;;;18.49;84.27;99703.50;10350066;28;20265;-74
2021/07/14 02:35:06;;;;;;;61.17;36.22;;;;;;;18.68;84.65;99707.50;10350167;28;20242;-73
2021/07/14 02:40:11;;;;;;;55.42;32.63;;;;;;;18.55;84.49;99705.47;10351385;28;20242;-74
2021/07/14 02:45:16;;;;;;;59.30;34.85;;;;;;;18.41;84.88;99701.75;10349407;28;20238;-74
2021/07/14 02:50:23;;;;;;;55.47;32.90;;;;;;;18.61;85.03;99701.13;10350511;28;20237;-74
2021/07/14 02:55:30;;;;;;;65.57;37.28;;;;;;;18.71;84.86;99696.22;10329638;28;20237;-74
2021/07/14 03:00:37;;;;;;;56.15;34.33;;;;;;;18.70;84.24;99694.50;10347852;28;20226;-74
2021/07/14 03:05:41;;;;;;;64.05;34.67;;;;;;;18.48;84.42;99690.94;10347010;28;20241;-74
2021/07/14 03:10:44;;;;;;;63.35;35.45;;;;;;;18.63;84.72;99682.75;10353173;28;20234;-74
2021/07/14 03:15:50;;;;;;;61.20;33.78;;;;;;;18.55;84.59;99686.41;10347917;28;20239;-74
2021/07/14 03:20:55;;;;;;;62.60;34.53;;;;;;;18.61;84.72;99679.38;10348067;28;20292;-74
2021/07/14 03:26:02;;;;;;;60.05;34.80;;;;;;;18.69;84.84;99684.69;10350203;28;20242;-74
2021/07/14 03:31:09;;;;;;;60.10;34.05;;;;;;;18.69;84.29;99687.41;10348891;28;20230;-74
2021/07/14 03:36:12;;;;;;;68.38;37.47;;;;;;;18.34;84.42;99693.50;10347512;28;20241;-74
2021/07/14 03:41:15;;;;;;;66.57;35.90;;;;;;;18.46;84.49;99695.75;10349502;28;21488;-74
2021/07/14 03:46:19;;;;;;;69.90;36.28;;;;;;;18.58;84.93;99688.75;10329597;28;20250;-74
2021/07/14 03:51:24;;;;;;;64.38;36.40;;;;;;;18.71;85.08;99691.59;10345492;28;20234;-73
2021/07/14 03:56:27;;;;;;;64.93;36.05;;;;;;;18.56;84.23;99691.66;10346206;28;20264;-74
2021/07/14 04:01:32;;;;;;;67.30;34.72;;;;;;;18.48;84.41;99688.22;10345230;28;20249;-74
2021/07/14 04:06:37;;;;;;;76.75;39.13;;;;;;;18.54;84.46;99682.88;10348980;28;20238;-74
2021/07/14 04:11:40;;;;;;;78.05;37.63;;;;;;;18.64;84.37;99677.09;10350964;28;20234;-74
2021/07/14 04:16:44;;;;;;;67.28;38.13;;;;;;;18.69;84.03;99684.69;10344898;28;20915;-74
2021/07/14 04:21:47;;;;;;;73.28;37.10;;;;;;;18.76;84.02;99677.44;10347342;28;20726;-73
2021/07/14 04:26:50;;;;;;;73.80;39.15;;;;;;;18.82;83.95;99678.56;10345663;28;20234;-74
2021/07/14 04:31:55;;;;;;;71.88;39.28;;;;;;;18.74;83.89;99682.22;10346993;28;20242;-74
2021/07/14 04:36:58;;;;;;;74.50;37.78;;;;;;;18.91;83.79;99689.09;10353409;28;20238;-73
2021/07/14 04:42:01;;;;;;;80.13;41.47;;;;;;;18.98;83.72;99713.66;10356966;28;20612;-74
2021/07/14 04:47:05;;;;;;;80.72;40.42;;;;;;;18.68;85.70;99721.09;10356290;28;20238;-74
2021/07/14 04:52:09;;;;;;;90.45;43.95;;;;;;;18.58;87.70;99718.66;10351478;28;21061;-73
2021/07/14 04:57:12;;;;;;;90.03;44.55;;;;;;;18.50;88.29;99718.78;10353873;28;20613;-73
2021/07/14 05:02:16;;;;;;;92.70;44.92;;;;;;;18.46;88.45;99715.63;10352467;28;20233;-73
2021/07/14 05:07:19;;;;;;;102.32;45.83;;;;;;;18.46;88.59;99717.50;10351953;28;20241;-73
2021/07/14 05:12:22;;;;;;;108.20;46.92;;;;;;;18.44;88.56;99717.69;10352842;28;20738;-73
2021/07/14 05:17:26;;;;;;;108.30;49.05;;;;;;;18.38;88.59;99712.19;10352047;28;20249;-73
2021/07/14 05:22:29;;;;;;;106.90;45.60;;;;;;;17.96;90.36;99702.84;10351547;28;20238;-73
2021/07/14 05:27:32;;;;;;;105.38;45.13;;;;;;;17.75;91.01;99688.16;10351289;28;20241;-73
2021/07/14 05:32:36;;;;;;;112.65;46.30;;;;;;;17.85;91.15;99691.44;10354627;28;20238;-73
2021/07/14 05:37:39;;;;;;;110.15;45.65;;;;;;;18.08;90.55;99685.91;10351449;28;20234;-74
2021/07/14 05:42:42;;;;;;;109.03;46.40;;;;;;;18.17;90.35;99683.06;10353846;28;20237;-73
2021/07/14 05:47:49;;;;;;;110.72;47.80;;;;;;;18.08;90.44;99691.31;10353305;28;20606;-73
2021/07/14 05:52:52;;;;;;;97.60;43.13;;;;;;;18.06;90.51;99695.28;10335981;28;20234;-73
2021/07/14 05:57:56;;;;;;;109.88;43.80;;;;;;;18.36;90.62;99699.59;10353336;28;20253;-73
2021/07/14 06:03:00;;;;;;;104.38;42.38;;;;;;;18.75;90.82;99697.50;10351621;28;20226;-73
2021/07/14 06:08:07;;;;;;;91.47;40.75;;;;;;;18.84;90.18;99699.09;10353803;28;20242;-73
2021/07/14 06:13:10;;;;;;;95.10;41.13;;;;;;;18.88;90.24;99696.81;10317066;28;20235;-73
2021/07/14 06:18:15;;;;;;;88.65;38.80;;;;;;;18.97;90.33;99695.63;10311350;28;20253;-73
2021/07/14 06:23:18;;;;;;;86.00;37.25;;;;;;;19.10;90.53;99692.19;10310046;28;20235;-73
2021/07/14 06:28:21;;;;;;;81.03;37.67;;;;;;;19.06;89.94;99704.50;10311066;28;21517;-73
2021/07/14 06:33:26;;;;;;;85.78;38.05;;;;;;;18.92;90.35;99707.09;10312245;28;20956;-73
2021/07/14 06:38:30;;;;;;;86.05;39.30;;;;;;;18.84;90.04;99707.25;10311394;28;20239;-73
2021/07/14 06:43:42;;;;;;;90.13;36.85;;;;;;;19.06;89.40;99702.66;10312742;28;20741;-72
2021/07/14 06:48:47;;;;;;;76.80;35.63;;;;;;;19.32;90.33;99709.31;10310192;28;20250;-73
2021/07/14 06:53:50;;;;;;;74.97;35.22;;;;;;;19.10;88.51;99703.91;10311134;28;20265;-72
2021/07/14 06:58:52;;;;;;;80.95;34.70;;;;;;;19.29;90.50;99699.69;10309894;28;20235;-73
2021/07/14 07:03:57;;;;;;;84.28;36.17;;;;;;;19.34;90.00;99701.81;10291620;28;20613;-72
2021/07/14 07:09:00;;;;;;;71.13;35.75;;;;;;;19.46;89.69;99702.94;10310276;28;20246;-73
2021/07/14 07:14:03;;;;;;;79.20;36.15;;;;;;;19.35;89.41;99703.47;10310989;28;20246;-72
2021/07/14 07:19:07;;;;;;;87.47;36.15;;;;;;;19.20;88.72;99704.44;10310129;28;20241;-73
2021/07/14 07:24:10;;;;;;;55.10;27.13;;;;;;;19.26;89.93;99701.97;10309782;28;20242;-72
2021/07/14 07:29:13;;;;;;;45.00;23.08;;;;;;;19.18;89.10;99702.94;10309449;28;20241;-72
2021/07/14 07:34:18;;;;;;;89.63;37.80;;;;;;;19.23;89.58;99693.16;10306923;28;20639;-72
2021/07/14 07:39:21;;;;;;;87.47;33.88;;;;;;;19.15;89.18;99685.13;10309235;28;20260;-72
2021/07/14 07:44:24;;;;;;;84.85;35.70;;;;;;;19.13;88.91;99679.03;10305721;28;20740;-72
2021/07/14 07:49:28;;;;;;;84.68;37.25;;;;;;;18.82;88.27;99689.44;10309662;28;20247;-73
2021/07/14 07:54:31;;;;;;;88.07;35.22;;;;;;;19.09;89.51;99691.34;10306453;28;20246;-73
2021/07/14 07:59:35;;;;;;;103.97;38.35;;;;;;;19.08;89.07;99689.66;10307723;28;20242;-72
2021/07/14 08:04:39;;;;;;;97.95;38.22;;;;;;;18.96;89.00;99681.19;10306021;28;20227;-72
2021/07/14 08:09:43;;;;;;;91.07;37.85;;;;;;;19.13;89.58;99673.56;10310527;28;20246;-73
2021/07/14 08:14:46;;;;;;;91.28;38.55;;;;;;;19.40;89.68;99669.16;10312433;28;20238;-73
2021/07/14 08:19:50;;;;;;;94.40;40.05;;;;;;;19.52;89.29;99676.78;10318026;28;20273;-73
2021/07/14 08:24:53;;;;;;;96.97;39.92;;;;;;;19.52;89.11;99664.00;10315936;28;20234;-71
2021/07/14 08:29:59;;;;;;;99.22;40.30;;;;;;;19.69;88.52;99672.72;10314235;28;21433;-73
2021/07/14 08:35:04;;;;;;;100.50;41.40;;;;;;;19.80;88.18;99676.75;10314692;28;20321;-73
2021/07/14 08:40:09;;;;;;;102.63;39.63;;;;;;;19.80;88.15;99684.94;10314781;28;20230;-73
2021/07/14 08:45:17;;;;;;;95.00;41.08;;;;;;;19.76;88.32;99670.88;10315781;28;20281;-73
2021/07/14 08:50:22;;;;;;;89.45;39.83;;;;;;;19.74;87.22;99680.28;10313755;28;20230;-73
2021/07/14 08:55:26;;;;;;;85.10;39.63;;;;;;;19.68;88.55;99684.66;10315096;28;20254;-73
2021/07/14 09:00:29;;;;;;;90.43;40.03;;;;;;;19.76;88.66;99691.84;10314965;28;20231;-72
2021/07/14 09:05:34;;;;;;;93.32;39.75;;;;;;;19.61;88.45;99689.22;10311486;28;20250;-73
2021/07/14 09:10:37;;;;;;;82.05;38.53;;;;;;;19.45;88.17;99701.25;10311947;28;20297;-73
2021/07/14 09:15:43;;;;;;;93.72;39.70;;;;;;;19.49;88.89;99701.69;10311301;28;20626;-72
2021/07/14 09:20:47;;;;;;;87.03;39.72;;;;;;;19.60;89.05;99688.38;10353070;28;20238;-73
2021/07/14 09:25:54;;;;;;;87.68;40.55;;;;;;;19.61;88.94;99687.38;10352430;28;20618;-73
2021/07/14 09:30:59;;;;;;;87.53;40.35;;;;;;;19.58;87.45;99676.00;10354154;28;20237;-73
2021/07/14 09:36:03;;;;;;;95.18;41.35;;;;;;;19.56;88.16;99668.06;10352910;28;20789;-72
2021/07/14 09:41:08;;;;;;;100.10;41.63;;;;;;;19.82;88.71;99655.59;10351886;28;20235;-73
2021/07/14 09:46:13;;;;;;;102.82;42.83;;;;;;;20.32;86.49;99646.19;10349894;28;20246;-73
2021/07/14 09:51:19;;;;;;;95.82;41.05;;;;;;;21.15;87.60;99653.22;10351226;28;20892;-73
2021/07/14 09:56:25;;;;;;;86.47;39.83;;;;;;;20.92;85.15;99648.97;10351489;28;20250;-72
2021/07/14 10:01:35;;;;;;;80.50;37.53;;;;;;;20.53;85.83;99656.06;10353939;28;20237;-73
2021/07/14 10:06:40;;;;;;;85.55;37.70;;;;;;;20.64;86.34;99661.97;10350955;28;20227;-73
2021/07/14 10:11:42;;;;;;;75.57;38.72;;;;;;;20.37;84.32;99642.81;10350803;28;20602;-72
2021/07/14 10:16:52;;;;;;;73.80;37.00;;;;;;;20.54;83.52;99629.63;10349504;28;20249;-73
2021/07/14 10:21:58;;;;;;;85.03;36.97;;;;;;;20.65;84.38;99634.50;10350276;28;20234;-72
2021/07/14 10:27:02;;;;;;;76.93;36.40;;;;;;;20.43;84.90;99636.56;10351263;28;21371;-71
2021/07/14 10:32:06;;;;;;;74.05;36.22;;;;;;;20.20;85.94;99649.69;10350764;28;20253;-73
2021/07/14 10:37:11;;;;;;;70.13;34.40;;;;;;;19.58;84.91;99648.75;10350018;28;20325;-73
2021/07/14 10:42:14;;;;;;;74.57;38.83;;;;;;;19.84;86.46;99634.44;10349338;28;20231;-73
2021/07/14 10:47:17;;;;;;;80.97;37.75;;;;;;;19.86;86.28;99629.66;10332225;28;20269;-73
2021/07/14 10:52:23;;;;;;;76.53;38.17;;;;;;;19.88;87.14;99638.44;10319061;28;20234;-72
2021/07/14 10:57:27;;;;;;;77.93;40.47;;;;;;;19.89;87.78;99637.41;10308993;28;20231;-72
2021/07/14 11:02:41;;;;;;;76.03;38.03;;;;;;;19.71;87.81;99631.66;10307771;28;20251;-72
2021/07/14 11:07:47;;;;;;;75.28;40.03;;;;;;;19.70;88.27;99621.81;10268397;28;20239;-73
2021/07/14 11:12:50;;;;;;;84.55;41.60;;;;;;;19.58;88.23;99616.94;10271153;28;20228;-73
2021/07/14 11:17:53;;;;;;;95.20;44.42;;;;;;;19.50;88.67;99617.09;10269625;28;20654;-73
2021/07/14 11:23:16;;;;;;;80.60;39.97;;;;;;;19.41;89.22;99612.81;10293274;28;20240;-72
2021/07/14 11:28:19;;;;;;;57.92;30.30;;;;;;;19.43;89.73;99610.75;10281034;28;20242;-72
2021/07/14 11:33:27;;;;;;;54.28;27.00;;;;;;;19.41;89.73;99621.81;10271172;28;20243;-73
2021/07/14 11:38:53;;;;;;;41.22;23.40;;;;;;;19.35;89.31;99629.97;10266692;28;20243;-72
2021/07/14 11:44:13;;;;;;;44.25;22.83;;;;;;;19.47;90.10;99625.63;10266965;28;20430;-74
2021/07/14 11:49:16;;;;;;;43.45;22.92;;;;;;;19.44;89.34;99635.06;10270311;28;20231;-72
2021/07/14 11:54:23;;;;;;;39.60;22.65;;;;;;;19.45;89.88;99631.28;10305312;28;20238;-72
2021/07/14 11:59:28;;;;;;;38.65;22.35;;;;;;;19.52;89.89;99631.31;10305223;28;20251;-72
2021/07/14 12:04:36;;;;;;;36.40;22.02;;;;;;;19.52;89.76;99617.69;10306182;28;20235;-72
2021/07/14 12:09:58;;;;;;;36.85;23.45;;;;;;;19.58;89.87;99611.50;10305849;28;20405;-73
2021/07/14 12:15:04;;;;;;;40.17;22.80;;;;;;;19.52;89.74;99608.69;10303606;28;20720;-73
2021/07/14 12:20:08;;;;;;;42.03;24.52;;;;;;;19.56;90.03;99612.75;10306732;28;20246;-73
2021/07/14 12:25:13;;;;;;;45.45;25.70;;;;;;;19.53;89.73;99607.63;10307911;28;20239;-73
2021/07/14 12:30:20;;;;;;;15.27;8.95;;;;;;;19.42;89.95;99606.34;10305075;28;20235;-73
2021/07/14 12:35:26;;;;;;;2.65;2.13;;;;;;;19.37;89.61;99606.94;10306048;28;20248;-73
2021/07/14 12:40:33;;;;;;;1.65;1.55;;;;;;;19.33;89.39;99602.09;10306688;28;20310;-72
2021/07/14 12:45:38;;;;;;;2.22;1.65;;;;;;;19.26;89.54;99596.63;10308657;28;20908;-73
2021/07/14 12:50:44;;;;;;;1.27;1.17;;;;;;;19.28;89.60;99597.25;10328706;28;20555;-74
2021/07/14 12:55:50;;;;;;;5.40;2.78;;;;;;;19.26;89.50;99607.50;10307957;28;20239;-72
2021/07/14 13:01:00;;;;;;;1.67;1.42;;;;;;;19.22;90.00;99604.31;10311386;28;21783;-73
2021/07/14 13:06:06;;;;;;;2.00;1.77;;;;;;;19.07;90.58;99600.88;10311578;28;20246;-73
2021/07/14 13:11:13;;;;;;;2.25;1.65;;;;;;;19.12;90.33;99603.03;10311199;28;20239;-73
2021/07/14 13:16:24;;;;;;;0.63;0.63;;;;;;;19.22;90.75;99593.44;10326872;28;20273;-73
2021/07/14 13:21:29;;;;;;;0.65;0.65;;;;;;;18.51;89.42;99598.09;10311177;28;20235;-73
2021/07/14 13:26:33;;;;;;;0.40;0.40;;;;;;;18.40;90.66;99599.44;10309008;28;20235;-73
2021/07/14 13:31:37;;;;;;;0.20;0.20;;;;;;;18.35;90.11;99605.50;10310269;28;20250;-73
2021/07/14 13:36:41;;;;;;;0.20;0.20;;;;;;;18.07;89.83;99609.97;10310935;28;20747;-73
2021/07/14 13:41:47;;;;;;;0.20;0.20;;;;;;;18.15;89.70;99609.88;10309655;28;20759;-73
2021/07/14 13:46:50;;;;;;;0.28;0.28;;;;;;;18.12;89.76;99607.53;10308999;28;20973;-73
2021/07/14 13:51:59;;;;;;;0.20;0.20;;;;;;;17.88;89.59;99611.41;10310773;28;20265;-73
2021/07/14 13:57:21;;;;;;;0.47;0.47;;;;;;;17.89;89.46;99616.66;10308881;28;20808;-73
2021/07/14 14:02:31;;;;;;;0.20;0.20;;;;;;;18.14;88.20;99630.78;10310890;28;20231;-75
2021/07/14 14:07:37;;;;;;;0.03;0.03;;;;;;;18.08;86.61;99639.69;10338316;28;20916;-73
2021/07/14 14:12:45;;;;;;;0.10;0.10;;;;;;;18.22;85.50;99658.88;10317022;28;20262;-73
2021/07/14 14:17:49;;;;;;;0.10;0.10;;;;;;;17.97;83.90;99659.22;10315170;28;20239;-73
2021/07/14 14:22:52;;;;;;;0.10;0.10;;;;;;;17.61;84.53;99665.41;10311499;28;20242;-73
2021/07/14 14:28:00;;;;;;;0.17;0.17;;;;;;;18.18;81.46;99682.03;10310744;28;20246;-74
2021/07/14 14:33:05;;;;;;;0.10;0.10;;;;;;;18.12;82.57;99679.03;10311694;28;20704;-73
2021/07/14 14:38:10;;;;;;;0.10;0.10;;;;;;;17.88;81.67;99685.63;10310290;28;20235;-73
2021/07/14 14:43:14;;;;;;;0.70;0.40;;;;;;;18.23;82.30;99706.75;10310922;28;20234;-73
2021/07/14 14:48:17;;;;;;;2.17;0.68;;;;;;;18.21;81.93;99712.41;10310750;28;20234;-74
2021/07/14 14:53:22;;;;;;;0.20;0.20;;;;;;;17.81;81.65;99713.72;10309698;28;20684;-74
2021/07/14 14:58:28;;;;;;;0.20;0.20;;;;;;;18.10;83.46;99712.88;10323922;28;20817;-74
2021/07/14 15:03:31;;;;;;;0.10;0.10;;;;;;;17.87;81.53;99700.22;10318180;28;20238;-73
2021/07/14 15:08:33;;;;;;;0.30;0.30;;;;;;;18.14;82.34;99684.28;10349957;28;20234;-72
2021/07/14 15:13:40;;;;;;;0.15;0.15;;;;;;;18.27;82.02;99698.03;10351121;28;20785;-74
2021/07/14 15:18:44;;;;;;;0.13;0.13;;;;;;;18.07;79.86;99710.53;10339212;28;20562;-74
2021/07/14 15:23:51;;;;;;;0.10;0.10;;;;;;;17.95;80.97;99729.16;10349337;28;20245;-74
2021/07/14 15:28:55;;;;;;;0.20;0.20;;;;;;;17.71;81.01;99730.28;10348715;28;20624;-73
2021/07/14 15:34:00;;;;;;;3.00;0.38;;;;;;;17.91;79.85;99719.72;10346411;28;20594;-72
2021/07/14 15:39:04;;;;;;;0.20;0.20;;;;;;;17.93;78.94;99721.19;10348484;28;20282;-73
2021/07/14 15:44:11;;;;;;;2.67;0.52;;;;;;;17.99;78.09;99722.38;10348123;28;20241;-74
2021/07/14 15:49:14;;;;;;;0.15;0.15;;;;;;;17.87;79.11;99711.06;10349411;28;20246;-74
2021/07/14 15:54:17;;;;;;;0.10;0.10;;;;;;;17.64;77.77;99732.91;10347066;28;20233;-74
2021/07/14 15:59:22;;;;;;;0.10;0.10;;;;;;;17.67;78.36;99720.84;10347846;28;20230;-74
2021/07/14 16:04:25;;;;;;;0.10;0.10;;;;;;;17.85;77.03;99740.34;10345433;28;20241;-74
2021/07/14 16:09:28;;;;;;;0.20;0.20;;;;;;;18.07;77.49;99740.41;10345560;28;20246;-74
2021/07/14 16:14:32;;;;;;;0.10;0.10;;;;;;;18.08;76.30;99747.56;10348510;28;20312;-74
2021/07/14 16:19:35;;;;;;;0.10;0.10;;;;;;;18.17;75.92;99745.59;10347139;28;20721;-74
2021/07/14 16:24:38;;;;;;;0.10;0.10;;;;;;;18.30;75.00;99754.75;10350891;28;20234;-73
2021/07/14 16:29:44;;;;;;;0.52;0.52;;;;;;;18.18;74.54;99756.25;10351002;28;20616;-73
2021/07/14 16:34:48;;;;;;;0.10;0.10;;;;;;;18.00;75.83;99769.41;10348756;28;20897;-75
2021/07/14 16:39:51;;;;;;;0.55;0.55;;;;;;;18.08;75.87;99775.56;10325438;28;20247;-73
2021/07/14 16:44:55;;;;;;;0.10;0.10;;;;;;;18.18;74.95;99769.00;10312919;28;20661;-74
2021/07/14 16:49:58;;;;;;;0.40;0.40;;;;;;;18.21;75.00;99772.19;10313322;28;20626;-73
2021/07/14 16:55:01;;;;;;;0.20;0.20;;;;;;;18.30;74.64;99784.66;10312325;28;20243;-73
2021/07/14 17:00:07;;;;;;;0.20;0.20;;;;;;;18.18;74.40;99780.72;10316125;28;20250;-76
2021/07/14 17:05:11;;;;;;;0.10;0.10;;;;;;;18.07;74.88;99789.34;10310486;28;20237;-74
2021/07/14 17:10:14;;;;;;;0.20;0.20;;;;;;;17.88;75.33;99787.97;10333347;28;20237;-75
2021/07/14 17:15:18;;;;;;;0.30;0.30;;;;;;;17.97;75.35;99833.09;10331487;28;20242;-74
2021/07/14 17:20:21;;;;;;;0.10;0.10;;;;;;;18.04;75.44;99830.47;10342485;28;20249;-75
2021/07/14 17:25:24;;;;;;;0.15;0.15;;;;;;;18.08;75.77;99823.66;10292474;28;20235;-75
2021/07/14 17:30:29;;;;;;;0.30;0.30;;;;;;;18.04;75.78;99806.03;10317987;28;20261;-75
2021/07/14 17:35:32;;;;;;;0.10;0.10;;;;;;;18.02;76.29;99808.06;10294746;28;20247;-75
2021/07/14 17:40:36;;;;;;;0.10;0.10;;;;;;;18.02;76.43;99808.94;10312880;28;20253;-75
2021/07/14 17:45:40;;;;;;;0.15;0.15;;;;;;;17.96;75.95;99806.06;10309023;28;20234;-75
2021/07/14 17:50:44;;;;;;;0.20;0.20;;;;;;;17.97;76.64;99800.50;10294874;28;20634;-74
2021/07/14 17:55:47;;;;;;;0.20;0.20;;;;;;;18.06;76.79;99812.94;10319578;28;20263;-74
2021/07/14 18:00:51;;;;;;;0.17;0.17;;;;;;;18.02;76.82;99792.63;10350640;28;20234;-74
2021/07/14 18:05:54;;;;;;;0.32;0.32;;;;;;;18.03;76.66;99793.47;10352298;28;20644;-75
2021/07/14 18:10:58;;;;;;;0.30;0.30;;;;;;;18.04;76.65;99795.16;10353742;28;20733;-74
2021/07/14 18:16:05;;;;;;;0.10;0.10;;;;;;;17.99;77.12;99786.72;10353374;28;20247;-75
2021/07/14 18:21:08;;;;;;;0.20;0.20;;;;;;;17.87;77.47;99800.72;10330133;28;20235;-74
2021/07/14 18:26:14;;;;;;;0.20;0.20;;;;;;;17.90;77.44;99805.78;10311215;28;20246;-73
2021/07/14 18:31:20;;;;;;;0.25;0.25;;;;;;;17.94;77.56;99803.56;10311201;28;22008;-74
2021/07/14 18:36:24;;;;;;;0.20;0.20;;;;;;;17.90;77.57;99786.78;10310555;28;20238;-75
2021/07/14 18:41:30;;;;;;;0.10;0.10;;;;;;;17.79;77.37;99784.50;10310486;28;20614;-75
2021/07/14 18:46:34;;;;;;;0.47;0.47;;;;;;;17.74;77.95;99786.94;10310959;28;20274;-75
2021/07/14 18:51:40;;;;;;;0.10;0.10;;;;;;;17.63;77.80;99790.94;10309272;28;20373;-75
2021/07/14 18:56:44;;;;;;;0.20;0.20;;;;;;;17.59;78.11;99791.53;10305997;28;20350;-74
2021/07/14 19:01:48;;;;;;;0.32;0.32;;;;;;;17.53;78.37;99798.53;10312126;28;20629;-75
2021/07/14 19:06:52;;;;;;;0.10;0.10;;;;;;;17.51;78.75;99813.31;10311852;28;20326;-74
2021/07/14 19:11:55;;;;;;;0.20;0.20;;;;;;;17.48;79.08;99815.38;10308962;28;20235;-74
2021/07/14 19:17:01;;;;;;;0.52;0.52;;;;;;;17.43;79.01;99833.25;10310735;28;20250;-74
2021/07/14 19:22:04;;;;;;;0.40;0.40;;;;;;;17.30;79.22;99835.72;10298978;28;20230;-74
2021/07/14 19:27:07;;;;;;;0.20;0.20;;;;;;;17.22;78.91;99839.31;10319103;28;20253;-74
2021/07/14 19:32:12;;;;;;;0.22;0.22;;;;;;;17.19;78.02;99851.38;10320068;28;20623;-73
2021/07/14 19:37:16;;;;;;;0.20;0.20;;;;;;;17.17;77.33;99852.63;10309970;28;20752;-74
2021/07/14 19:42:19;;;;;;;0.57;0.57;;;;;;;17.18;77.06;99860.56;10309858;28;20621;-74
2021/07/14 19:47:23;;;;;;;1.08;0.47;;;;;;;17.05;76.64;99863.00;10307922;28;20243;-74
2021/07/14 19:52:26;;;;;;;0.45;0.45;;;;;;;16.97;77.23;99872.00;10310649;28;20234;-74
2021/07/14 19:57:29;;;;;;;0.63;0.63;;;;;;;16.87;77.08;99870.56;10308131;28;20721;-74
2021/07/14 20:02:33;;;;;;;0.17;0.17;;;;;;;16.73;77.42;99878.44;10309199;28;20707;-74
2021/07/14 20:07:36;;;;;;;0.30;0.30;;;;;;;16.67;77.73;99884.53;10310664;28;20243;-75
2021/07/14 20:12:39;;;;;;;0.40;0.40;;;;;;;16.58;77.71;99878.31;10306423;28;20615;-74
2021/07/14 20:17:44;;;;;;;0.30;0.30;;;;;;;16.50;77.88;99867.50;10291986;28;20447;-74
2021/07/14 20:22:47;;;;;;;0.57;0.57;;;;;;;16.41;78.25;99865.00;10308133;28;20264;-74
2021/07/14 20:27:50;;;;;;;0.25;0.25;;;;;;;16.33;78.26;99863.19;10305927;28;20649;-75
2021/07/14 20:32:54;;;;;;;0.80;0.43;;;;;;;16.26;78.25;99871.13;10307477;28;20242;-74
2021/07/14 20:37:58;;;;;;;1.45;0.57;;;;;;;16.21;78.43;99878.06;10306686;28;20265;-75
2021/07/14 20:43:02;;;;;;;0.30;0.30;;;;;;;16.09;78.71;99886.56;10308370;28;20619;-74
2021/07/14 20:48:09;;;;;;;0.22;0.22;;;;;;;16.04;78.46;99894.34;10311282;28;20246;-73
2021/07/14 20:53:13;;;;;;;2.35;1.02;;;;;;;16.00;78.73;99901.16;10304006;28;20243;-74
2021/07/14 20:58:16;;;;;;;0.20;0.20;;;;;;;15.95;79.04;99916.22;10309153;28;20238;-73
2021/07/14 21:03:22;;;;;;;0.32;0.32;;;;;;;15.87;79.30;99914.38;10308991;28;20242;-73
2021/07/14 21:08:25;;;;;;;0.30;0.30;;;;;;;15.65;79.07;99911.31;10308334;28;20742;-74
2021/07/14 21:13:28;;;;;;;0.90;0.90;;;;;;;15.62;79.73;99914.38;10305505;28;20231;-74
2021/07/14 21:18:33;;;;;;;1.48;0.55;;;;;;;15.60;80.19;99915.53;10311468;28;20246;-74
2021/07/14 21:23:36;;;;;;;0.20;0.20;;;;;;;15.54;80.10;99918.94;10312142;28;20800;-74
2021/07/14 21:28:39;;;;;;;0.20;0.20;;;;;;;15.55;80.46;99920.59;10313837;28;20239;-74
2021/07/14 21:33:43;;;;;;;0.50;0.50;;;;;;;15.54;80.18;99933.31;10313073;28;20238;-74
2021/07/14 21:38:46;;;;;;;0.47;0.47;;;;;;;15.49;80.41;99938.38;10313114;28;20235;-74
2021/07/14 21:43:49;;;;;;;0.43;0.43;;;;;;;15.49;80.21;99938.38;10320974;28;20226;-74
2021/07/14 21:48:54;;;;;;;0.20;0.20;;;;;;;15.50;80.69;99941.94;10314259;28;20246;-74
2021/07/14 21:53:57;;;;;;;0.45;0.45;;;;;;;15.50;80.10;99950.06;10311317;28;20231;-74
2021/07/14 21:59:00;;;;;;;0.95;0.93;;;;;;;15.40;80.17;99953.75;10314462;28;20768;-74
2021/07/14 22:04:04;;;;;;;0.20;0.20;;;;;;;15.37;80.45;99939.72;10307277;28;20897;-73
2021/07/14 22:09:08;;;;;;;0.40;0.40;;;;;;;15.38;80.31;99917.88;10310298;28;20626;-73
2021/07/14 22:14:11;;;;;;;0.30;0.30;;;;;;;15.29;80.29;99932.38;10292779;28;20247;-73
2021/07/14 22:19:16;;;;;;;0.17;0.17;;;;;;;15.22;80.12;99934.94;10310724;28;20235;-73
2021/07/14 22:24:18;;;;;;;0.50;0.40;;;;;;;15.17;80.39;99934.56;10311017;28;20233;-73
2021/07/14 22:29:23;;;;;;;1.20;1.10;;;;;;;15.12;80.72;99947.75;10310371;28;20235;-73
2021/07/14 22:34:30;;;;;;;0.20;0.20;;;;;;;15.14;80.81;99953.84;10311155;28;20234;-73
2021/07/14 22:39:33;;;;;;;1.35;0.63;;;;;;;15.07;80.82;99957.34;10311269;28;20244;-73
2021/07/14 22:44:36;;;;;;;0.35;0.35;;;;;;;15.07;80.95;99973.59;10311740;28;20242;-73
2021/07/14 22:49:40;;;;;;;0.40;0.40;;;;;;;15.11;81.00;99967.69;10316110;28;20238;-73
2021/07/14 22:54:44;;;;;;;0.80;0.80;;;;;;;15.21;80.64;99951.31;10311586;28;21409;-73
2021/07/14 22:59:47;;;;;;;0.80;0.80;;;;;;;15.25;80.66;99956.22;10293311;28;20890;-73
2021/07/14 23:04:51;;;;;;;0.30;0.30;;;;;;;15.32;80.43;99971.81;10312022;28;20277;-73
2021/07/14 23:09:54;;;;;;;0.38;0.38;;;;;;;15.37;80.58;99967.63;10311237;28;20719;-73
2021/07/14 23:14:57;;;;;;;0.30;0.30;;;;;;;15.47;80.69;99962.06;10309469;28;20254;-73
2021/07/14 23:20:01;;;;;;;0.73;0.73;;;;;;;15.49;80.34;99970.84;10310479;28;20238;-73
2021/07/14 23:25:06;;;;;;;0.20;0.20;;;;;;;15.55;80.42;99967.50;10310267;28;20238;-74
2021/07/14 23:30:11;;;;;;;0.57;0.57;;;;;;;15.60;80.10;99975.94;10309088;28;20614;-74